University, MS

9:18 PM CDT on July 12, 2014 (GMT -0500)
University-Oxford (KUOX) Elev 453 ft | 34.38 °N, 89.54 °W | Change Station

Current weather conditions updated 23 minutes ago

Clear
Clear
77 °F
Feels Like 77 °F
N
0
Wind Variable Wind from North

Tomorrow is forecast to be Warmer than today.

Today
High -- | Low -- °F
--% Chance of Precip.
Yesterday
High -- | Low -- °F
Precip. -- in
5:55 AM 8:12 PM
Waxing Gibbous, 99% visible
Pressure 30.11 in
Visibility 10.0 miles
Clouds Clear
Dew Point 73 °F
Humidity 89%
Rainfall 0.00 in
Snow Depth Not available.
UV 0 out of 12
Pollen 2.80 out of 12
Air Quality Not available.
Flu Activity No Activity
METAR KUOX 130155Z AUTO 00000KT 10SM CLR 25/23 A3011 RMK AO2

More Conditions Fewer Conditions

Pressure 30.11 in
Visibility 10.0 miles
Clouds Clear
Dew Point 73 °F
Humidity 89%
Rainfall 0.00 in
Snow Depth Not available.
UV 0 out of 12
Pollen 2.80 out of 12
Air Quality Not available.
Flu Activity No Activity
METAR KUOX 130155Z AUTO 00000KT 10SM CLR 25/23 A3011 RMK AO2

More Conditions Fewer Conditions

10-Day Weather Forecast

Almanac

Astronomy

Jul. 12, 2014 Rise Set
Actual Time 5:55 AM CDT 8:12 PM CDT
Civil Twilight 5:26 AM CDT 8:40 PM CDT
Nautical Twilight 4:51 AM CDT 9:16 PM CDT
Astronomical Twilight 4:12 AM CDT 9:54 PM CDT
Moon 8:18 PM CDT (7/12) 6:10 AM CDT (7/12)
Length of Visible Light 15h 14m
Length of Day
14h 16m
Tomorrow will be 0m 58s shorter.
Waxing Gibbous, 99% of the Moon is Illuminated
Today
Waxing Gibbous
Jul 18
Last Quarter
Jul 26
New
Aug 3
First Quarter
Aug 10
Full

Today's Extremes

State Highs State Lows

Community

WunderPhotos

Upload Photos

1,733,049 photos uploaded!

WunderBlogs® & News

Nearby

Snow Depth

Station Depth Elevation
No new snow has been reported.

Earthquake Activity

City Distance Mag. Time & Date
No recent earthquake activity has been reported nearby.
Minimum magnitude displayed is 2.5.

Coastal Water Temperatures

Place Temperature
No Stations Reporting

Nearby Weather Stations

Station Location Temp. Heat Index Dew Point Humidity Wind Precip. Elev Updated Type
MesoWest GOODWIN CK PASTURE , Pope, MS 81 °F 89 °F 78 °F 92% ESE  at  0 mph 0.00 in / hr 319 ft 8:00 PM CDT MADIS
RAWS WINBORN MS, Potts Camp, MS 80 °F 83 °F 70 °F 72% North  at  0 mph 0.00 in / hr 500 ft 8:09 PM CDT MADIS

Show More Stations Show Fewer Stations